Time;durP1;ratioP1;P1;durP2;ratioP2;P2;SDS_P1;SDS_P2;PMS_P1;PMS_P2;Temp;Humidity;BMP_temperature;BMP_pressure;BME280_temperature;BME280_humidity;BME280_pressure;Samples;Min_cycle;Max_cycle;Signal;HPM_P1;HPM_P2
2022/03/02 00:01:30;;;;;;;24.58;15.45;;;10.20;60.30;;;;;;5014435;28;20038;-75
2022/03/02 00:03:56;;;;;;;24.17;15.23;;;10.20;60.30;;;;;;5014485;28;20058;-76
2022/03/02 00:06:22;;;;;;;26.40;16.25;;;10.20;60.20;;;;;;5014887;28;20436;-76
2022/03/02 00:08:47;;;;;;;25.48;15.82;;;10.10;60.10;;;;;;5014530;28;20018;-75
2022/03/02 00:11:13;;;;;;;24.55;15.85;;;10.20;60.30;;;;;;5014597;28;20109;-75
2022/03/02 00:13:39;;;;;;;27.58;17.08;;;10.10;60.00;;;;;;5014514;28;20018;-76
2022/03/02 00:16:05;;;;;;;28.88;16.98;;;10.10;59.90;;;;;;5014150;28;20393;-76
2022/03/02 00:18:31;;;;;;;28.55;17.25;;;10.00;59.90;;;;;;5010657;28;20038;-75
2022/03/02 00:20:57;;;;;;;30.00;17.33;;;9.90;60.10;;;;;;5014517;28;20108;-76
2022/03/02 00:23:22;;;;;;;28.75;16.35;;;9.90;60.20;;;;;;5014169;28;20022;-75
2022/03/02 00:25:48;;;;;;;31.13;18.23;;;9.90;60.30;;;;;;5014324;28;20489;-75
2022/03/02 00:28:14;;;;;;;33.03;18.65;;;9.90;60.10;;;;;;5013647;28;20030;-76
2022/03/02 00:30:40;;;;;;;33.97;18.42;;;9.90;60.10;;;;;;5014355;28;20092;-75
2022/03/02 00:33:07;;;;;;;29.60;17.42;;;9.70;60.70;;;;;;5013902;28;20050;-75
2022/03/02 00:35:34;;;;;;;29.20;17.85;;;9.50;61.10;;;;;;5014564;28;20034;-76
2022/03/02 00:38:02;;;;;;;29.02;16.13;;;9.50;61.50;;;;;;5013472;28;20049;-76
2022/03/02 00:40:28;;;;;;;26.00;16.15;;;9.50;61.50;;;;;;5013912;28;20048;-76
2022/03/02 00:42:54;;;;;;;26.27;16.25;;;9.60;61.40;;;;;;5013861;28;20030;-76
2022/03/02 00:45:20;;;;;;;25.90;16.15;;;9.60;61.30;;;;;;5014026;28;20059;-76
2022/03/02 00:47:46;;;;;;;23.40;15.23;;;9.70;61.20;;;;;;5013617;28;20032;-74
2022/03/02 00:50:12;;;;;;;25.88;15.77;;;9.90;61.10;;;;;;5013096;28;20417;-76
2022/03/02 00:52:38;;;;;;;28.98;16.05;;;9.90;60.80;;;;;;5013481;28;20044;-76
2022/03/02 00:55:04;;;;;;;25.42;16.00;;;9.90;60.60;;;;;;5013774;28;20037;-76
2022/03/02 00:57:30;;;;;;;26.42;16.52;;;10.00;60.40;;;;;;5014075;28;20072;-76
2022/03/02 00:59:56;;;;;;;26.30;15.18;;;10.10;60.30;;;;;;5013599;28;20037;-76
2022/03/02 01:02:22;;;;;;;23.88;15.32;;;10.10;60.20;;;;;;5013527;28;20022;-76
2022/03/02 01:04:47;;;;;;;24.77;15.32;;;10.20;60.10;;;;;;5013592;28;20022;-76
2022/03/02 01:07:13;;;;;;;26.52;16.73;;;10.20;60.10;;;;;;5013602;28;20429;-76
2022/03/02 01:09:39;;;;;;;24.15;15.50;;;10.10;60.00;;;;;;5013574;28;20022;-76
2022/03/02 01:12:04;;;;;;;26.00;15.63;;;10.10;60.10;;;;;;5013118;28;20080;-76
2022/03/02 01:14:30;;;;;;;25.58;16.40;;;10.10;60.20;;;;;;5013497;28;20378;-76
2022/03/02 01:16:56;;;;;;;24.90;15.00;;;10.10;60.30;;;;;;5013176;28;20484;-76
2022/03/02 01:19:21;;;;;;;25.10;15.48;;;10.10;60.40;;;;;;5013509;28;20382;-76
2022/03/02 01:21:47;;;;;;;26.27;15.75;;;10.10;60.40;;;;;;5012466;28;20427;-76
2022/03/02 01:24:13;;;;;;;22.55;14.93;;;10.10;60.40;;;;;;5013242;28;20029;-76
2022/03/02 01:26:39;;;;;;;24.33;15.57;;;10.10;60.30;;;;;;5012999;28;20026;-76
2022/03/02 01:29:05;;;;;;;23.15;14.88;;;10.10;60.40;;;;;;5012683;28;20033;-76
2022/03/02 01:31:31;;;;;;;27.33;17.17;;;10.10;60.50;;;;;;5013285;28;20100;-76
2022/03/02 01:33:57;;;;;;;26.70;15.73;;;10.10;60.50;;;;;;5013130;28;20623;-76
2022/03/02 01:36:23;;;;;;;26.17;15.98;;;10.00;60.70;;;;;;5012960;28;20053;-76
2022/03/02 01:38:49;;;;;;;26.27;15.63;;;10.00;60.70;;;;;;5012761;28;20034;-76
2022/03/02 01:41:17;;;;;;;23.40;16.33;;;10.00;60.80;;;;;;5012676;28;20037;-76
2022/03/02 01:43:46;;;;;;;27.85;17.25;;;10.00;61.00;;;;;;5012537;28;20080;-76
2022/03/02 01:46:13;;;;;;;32.88;17.55;;;10.00;61.10;;;;;;5012970;28;20033;-76
2022/03/02 01:48:39;;;;;;;26.27;16.50;;;9.90;61.30;;;;;;5012039;28;20034;-76
2022/03/02 01:51:05;;;;;;;24.10;15.93;;;9.90;61.50;;;;;;5012389;28;20085;-76
2022/03/02 01:53:31;;;;;;;24.60;16.02;;;9.90;61.50;;;;;;5012054;28;20054;-76
2022/03/02 01:55:58;;;;;;;30.08;16.98;;;9.90;61.50;;;;;;5012911;28;20079;-76
2022/03/02 01:58:25;;;;;;;28.40;17.77;;;9.90;61.70;;;;;;5012126;28;20113;-76
2022/03/02 02:00:51;;;;;;;30.92;18.13;;;9.80;61.90;;;;;;5012832;28;20034;-76
2022/03/02 02:03:18;;;;;;;27.80;17.70;;;9.60;62.50;;;;;;5012120;28;20106;-76
2022/03/02 02:05:43;;;;;;;28.52;18.73;;;9.40;63.00;;;;;;5013206;28;20057;-76
2022/03/02 02:08:09;;;;;;;29.35;18.30;;;9.10;63.40;;;;;;5012262;28;20056;-76
2022/03/02 02:10:35;;;;;;;30.15;18.30;;;9.00;63.90;;;;;;5012640;28;20030;-76
2022/03/02 02:13:01;;;;;;;27.63;17.77;;;8.90;64.50;;;;;;5012175;28;20018;-75
2022/03/02 02:15:27;;;;;;;28.23;17.60;;;8.90;64.70;;;;;;5012777;28;20065;-77
2022/03/02 02:17:52;;;;;;;29.45;18.73;;;9.00;64.90;;;;;;5011973;28;20063;-77
2022/03/02 02:20:18;;;;;;;31.85;19.60;;;9.00;65.00;;;;;;5012255;28;20038;-77
2022/03/02 02:22:46;;;;;;;31.60;19.55;;;8.80;65.70;;;;;;5012602;28;20022;-77
2022/03/02 02:25:13;;;;;;;30.73;18.40;;;8.70;66.50;;;;;;5012049;28;20030;-77
2022/03/02 02:27:40;;;;;;;32.50;19.92;;;8.60;66.70;;;;;;5012379;28;20148;-77
2022/03/02 02:30:07;;;;;;;34.75;19.98;;;8.40;67.30;;;;;;5016321;28;20041;-77
2022/03/02 02:32:36;;;;;;;31.60;21.17;;;8.30;67.70;;;;;;5012177;28;20519;-77
2022/03/02 02:35:06;;;;;;;32.70;20.20;;;8.40;68.30;;;;;;5012345;28;20041;-77
2022/03/02 02:37:33;;;;;;;30.88;20.70;;;8.30;68.50;;;;;;5012351;28;20075;-77
2022/03/02 02:40:03;;;;;;;32.95;18.98;;;8.30;68.90;;;;;;5012291;28;20131;-76
2022/03/02 02:42:29;;;;;;;39.63;20.13;;;8.30;68.90;;;;;;5011991;28;20056;-77
2022/03/02 02:44:55;;;;;;;31.70;20.05;;;8.40;68.80;;;;;;5012065;28;20033;-77
2022/03/02 02:47:21;;;;;;;32.50;21.23;;;8.30;68.90;;;;;;5012073;28;20025;-77
2022/03/02 02:49:47;;;;;;;32.78;19.70;;;8.30;69.00;;;;;;5011908;28;20049;-78
2022/03/02 02:52:13;;;;;;;32.80;19.75;;;8.20;69.20;;;;;;5011863;28;20053;-77
2022/03/02 02:54:40;;;;;;;30.50;19.42;;;8.30;69.10;;;;;;5011239;28;20021;-77
2022/03/02 02:57:06;;;;;;;31.55;19.42;;;8.40;68.80;;;;;;5011836;28;20022;-77
2022/03/02 02:59:31;;;;;;;32.47;19.83;;;8.50;68.40;;;;;;5011068;28;20045;-77
2022/03/02 03:01:57;;;;;;;30.00;19.20;;;8.60;68.00;;;;;;5015706;28;20060;-77
2022/03/02 03:04:23;;;;;;;31.58;19.30;;;8.70;67.80;;;;;;5015450;28;20034;-77
2022/03/02 03:06:48;;;;;;;31.48;19.70;;;8.80;67.40;;;;;;5013371;28;20073;-76
2022/03/02 03:09:16;;;;;;;28.33;18.65;;;8.80;67.00;;;;;;5015395;28;20034;-76
2022/03/02 03:11:42;;;;;;;30.75;19.85;;;8.70;66.90;;;;;;5015881;28;20037;-74
2022/03/02 03:14:09;;;;;;;32.83;19.75;;;8.70;67.00;;;;;;5015480;28;20082;-75
2022/03/02 03:16:36;;;;;;;29.17;18.88;;;8.70;66.80;;;;;;5012956;28;20030;-74
2022/03/02 03:19:02;;;;;;;31.75;19.27;;;8.70;66.80;;;;;;5015723;28;20030;-75
2022/03/02 03:21:28;;;;;;;35.10;19.45;;;8.70;66.90;;;;;;5015195;28;20087;-75
2022/03/02 03:23:53;;;;;;;32.38;19.75;;;8.60;67.00;;;;;;5015755;28;20030;-75
2022/03/02 03:26:19;;;;;;;30.52;19.30;;;8.50;67.40;;;;;;5015070;28;20112;-76
2022/03/02 03:28:44;;;;;;;27.88;18.92;;;8.40;67.70;;;;;;5015516;28;20018;-76
2022/03/02 03:31:10;;;;;;;27.67;17.95;;;8.50;67.70;;;;;;5015279;28;20026;-75
2022/03/02 03:33:36;;;;;;;29.50;18.48;;;8.50;67.30;;;;;;5015618;28;20527;-75
2022/03/02 03:36:02;;;;;;;28.27;18.40;;;8.50;67.40;;;;;;5015181;28;20388;-75
2022/03/02 03:38:28;;;;;;;30.48;17.60;;;8.60;67.20;;;;;;5015203;28;20042;-75
2022/03/02 03:40:54;;;;;;;30.02;17.45;;;8.70;66.90;;;;;;5015357;28;20461;-75
2022/03/02 03:43:19;;;;;;;29.55;18.92;;;8.80;66.70;;;;;;5014968;28;20037;-75
2022/03/02 03:45:45;;;;;;;28.75;18.75;;;8.90;65.90;;;;;;5015595;28;20121;-76
2022/03/02 03:48:11;;;;;;;31.00;18.90;;;8.70;66.20;;;;;;5014870;28;20034;-75
2022/03/02 03:50:37;;;;;;;31.42;18.20;;;8.70;66.60;;;;;;5014865;28;20390;-75
2022/03/02 03:53:03;;;;;;;29.73;17.33;;;8.70;66.50;;;;;;5015057;28;20038;-76
2022/03/02 03:55:28;;;;;;;30.90;18.08;;;8.80;66.30;;;;;;5014999;28;20030;-75
2022/03/02 03:57:54;;;;;;;31.58;20.02;;;8.90;66.50;;;;;;5014747;28;20026;-75
2022/03/02 04:00:20;;;;;;;29.73;19.00;;;8.80;66.70;;;;;;5014216;28;20045;-75
2022/03/02 04:02:46;;;;;;;30.60;19.25;;;8.60;67.10;;;;;;5014586;28;20026;-76
2022/03/02 04:05:11;;;;;;;31.90;19.55;;;8.50;67.50;;;;;;5014763;28;20030;-75
2022/03/02 04:07:38;;;;;;;27.65;17.80;;;8.50;67.60;;;;;;5014922;28;20409;-75
2022/03/02 04:10:09;;;;;;;26.83;18.30;;;8.50;67.50;;;;;;5014728;28;20113;-75
2022/03/02 04:12:35;;;;;;;32.60;19.98;;;8.70;67.40;;;;;;5013635;28;20072;-75
2022/03/02 04:15:00;;;;;;;36.30;19.55;;;8.70;67.20;;;;;;5014479;28;20036;-74
2022/03/02 04:17:26;;;;;;;32.22;19.25;;;8.50;67.50;;;;;;5014460;28;20022;-77
2022/03/02 04:19:52;;;;;;;29.88;17.83;;;8.30;68.10;;;;;;5014040;28;20029;-75
2022/03/02 04:22:18;;;;;;;31.20;19.33;;;8.30;68.30;;;;;;5014420;28;20049;-76
2022/03/02 04:24:43;;;;;;;28.48;17.80;;;8.40;68.30;;;;;;5014569;28;20037;-75
2022/03/02 04:27:09;;;;;;;28.77;17.13;;;8.60;68.10;;;;;;5014308;28;20026;-76
2022/03/02 04:29:35;;;;;;;29.45;18.55;;;8.60;67.80;;;;;;5013903;28;20105;-76
2022/03/02 04:32:01;;;;;;;30.58;19.23;;;8.70;67.60;;;;;;5011445;28;20030;-76
2022/03/02 04:34:27;;;;;;;28.83;19.13;;;8.80;67.70;;;;;;5014132;28;20045;-76
2022/03/02 04:36:55;;;;;;;30.70;18.42;;;8.80;67.40;;;;;;5014020;28;20075;-76
2022/03/02 04:39:21;;;;;;;31.23;19.30;;;8.80;67.40;;;;;;5014040;28;20438;-76
2022/03/02 04:41:47;;;;;;;29.35;18.48;;;8.90;67.40;;;;;;5012410;28;20037;-75
2022/03/02 04:44:12;;;;;;;29.80;19.08;;;8.80;67.40;;;;;;5014541;28;20084;-75
2022/03/02 04:46:38;;;;;;;31.17;19.92;;;8.80;67.80;;;;;;5013637;28;20129;-76
2022/03/02 04:49:10;;;;;;;28.63;18.70;;;8.70;68.60;;;;;;5013925;28;20034;-75
2022/03/02 04:51:39;;;;;;;30.17;19.57;;;8.50;68.20;;;;;;5013579;28;20030;-75
2022/03/02 04:54:06;;;;;;;32.25;18.77;;;8.50;68.50;;;;;;5013975;28;20109;-75
2022/03/02 04:56:32;;;;;;;29.10;18.75;;;8.50;68.50;;;;;;5013688;28;20045;-76
2022/03/02 04:58:57;;;;;;;30.95;19.25;;;8.60;68.40;;;;;;5010930;28;20434;-75
2022/03/02 05:01:25;;;;;;;29.92;18.70;;;8.60;68.10;;;;;;5013571;28;20064;-75
2022/03/02 05:03:51;;;;;;;29.70;18.60;;;8.70;68.00;;;;;;5013851;28;20026;-75
2022/03/02 05:06:16;;;;;;;33.22;20.73;;;8.70;67.70;;;;;;5013337;28;20429;-75
2022/03/02 05:08:42;;;;;;;28.58;18.73;;;8.70;67.60;;;;;;5013239;28;20024;-75
2022/03/02 05:11:08;;;;;;;30.55;19.05;;;8.60;67.60;;;;;;5013174;28;20029;-75
2022/03/02 05:13:35;;;;;;;25.42;17.23;;;8.70;67.70;;;;;;5013125;28;20283;-75
2022/03/02 05:16:01;;;;;;;31.38;19.23;;;8.70;67.50;;;;;;5013130;28;20026;-74
2022/03/02 05:18:26;;;;;;;32.22;19.30;;;8.60;67.60;;;;;;5012941;28;20045;-75
2022/03/02 05:20:52;;;;;;;26.95;17.67;;;8.70;67.50;;;;;;5013238;28;20034;-75
2022/03/02 05:23:17;;;;;;;30.00;18.45;;;8.70;67.50;;;;;;5013197;28;20373;-75
2022/03/02 05:25:43;;;;;;;30.40;18.52;;;8.70;67.40;;;;;;5013438;28;20022;-75
2022/03/02 05:28:09;;;;;;;28.55;17.85;;;8.70;67.20;;;;;;5012914;28;20061;-75
2022/03/02 05:30:34;;;;;;;31.25;19.45;;;8.70;67.20;;;;;;5013150;28;20104;-75
2022/03/02 05:33:00;;;;;;;25.95;18.25;;;8.70;67.10;;;;;;5012970;28;20068;-75
2022/03/02 05:35:25;;;;;;;29.50;18.27;;;8.70;67.00;;;;;;5013128;28;20025;-75
2022/03/02 05:37:51;;;;;;;32.80;19.15;;;8.70;67.00;;;;;;5012942;28;20030;-75
2022/03/02 05:40:19;;;;;;;29.88;18.85;;;8.70;67.00;;;;;;5012803;28;20075;-75
2022/03/02 05:42:44;;;;;;;30.67;18.80;;;8.70;67.10;;;;;;5012876;28;20104;-75
2022/03/02 05:45:10;;;;;;;30.23;17.50;;;8.70;67.30;;;;;;5012954;28;20486;-76
2022/03/02 05:47:38;;;;;;;30.45;18.67;;;8.60;67.30;;;;;;5012651;28;20057;-75
2022/03/02 05:50:05;;;;;;;31.92;18.50;;;8.70;67.40;;;;;;5012376;28;20061;-75
2022/03/02 05:52:31;;;;;;;32.97;18.67;;;8.60;67.40;;;;;;5012009;28;20032;-78
2022/03/02 05:54:57;;;;;;;33.33;19.02;;;8.70;67.40;;;;;;5013065;28;20030;-78
2022/03/02 05:57:22;;;;;;;29.70;18.23;;;8.60;67.30;;;;;;5011802;28;20073;-77
2022/03/02 05:59:48;;;;;;;32.30;19.58;;;8.60;67.40;;;;;;5012604;28;20448;-78
2022/03/02 06:02:14;;;;;;;31.60;19.58;;;8.50;67.30;;;;;;5011999;28;20420;-77
2022/03/02 06:04:40;;;;;;;32.65;19.55;;;8.50;67.50;;;;;;5012403;28;20028;-78
2022/03/02 06:07:06;;;;;;;26.83;18.08;;;8.50;67.50;;;;;;5011958;28;20455;-77
2022/03/02 06:09:32;;;;;;;33.25;18.88;;;8.50;67.50;;;;;;5012581;28;20034;-76
2022/03/02 06:11:58;;;;;;;34.30;18.10;;;8.50;67.30;;;;;;5012411;28;20033;-75
2022/03/02 06:14:24;;;;;;;29.17;17.63;;;8.50;67.20;;;;;;5012402;28;20041;-76
2022/03/02 06:16:50;;;;;;;30.85;18.45;;;8.60;67.10;;;;;;5012027;28;20022;-76
2022/03/02 06:19:16;;;;;;;31.80;18.35;;;8.60;67.00;;;;;;5012382;28;20371;-75
2022/03/02 06:21:43;;;;;;;32.60;19.08;;;8.60;66.90;;;;;;5011611;28;20036;-76
2022/03/02 06:24:09;;;;;;;32.75;18.95;;;8.60;66.70;;;;;;5012388;28;20044;-74
2022/03/02 06:26:35;;;;;;;28.83;18.33;;;8.50;66.70;;;;;;5011928;28;20473;-76
2022/03/02 06:29:01;;;;;;;30.83;18.17;;;8.50;66.70;;;;;;5012139;28;20037;-76
2022/03/02 06:31:27;;;;;;;30.85;18.40;;;8.50;66.70;;;;;;5011491;28;20022;-76
2022/03/02 06:33:53;;;;;;;31.08;17.70;;;8.50;66.50;;;;;;5009970;28;20054;-76
2022/03/02 06:36:20;;;;;;;29.95;17.95;;;8.50;66.40;;;;;;5011253;28;20024;-75
2022/03/02 06:38:45;;;;;;;31.80;17.80;;;8.50;66.30;;;;;;5010892;28;20037;-75
2022/03/02 06:41:29;;;;;;;27.20;17.52;;;8.50;66.40;;;;;;5011726;28;20038;-75
2022/03/02 06:44:04;;;;;;;26.80;15.85;;;8.50;66.50;;;;;;5011884;28;20101;-77
2022/03/02 06:46:41;;;;;;;29.85;19.33;;;8.50;68.00;;;;;;5011458;28;20033;-76
2022/03/02 06:49:33;;;;;;;28.98;16.63;;;8.60;67.80;;;;;;5011375;28;20058;-82
2022/03/02 06:52:02;;;;;;;26.55;16.58;;;8.60;69.70;;;;;;5010557;28;20490;-81
2022/03/02 06:54:32;;;;;;;27.75;17.17;;;8.60;70.40;;;;;;5012230;28;20092;-81
2022/03/02 06:57:00;;;;;;;30.52;18.35;;;8.70;70.10;;;;;;5014192;28;20026;-81
2022/03/02 06:59:30;;;;;;;25.60;17.00;;;8.70;69.30;;;;;;5009573;28;20034;-85
2022/03/02 07:02:02;;;;;;;29.20;16.25;;;8.70;69.50;;;;;;5009109;28;20099;-82
2022/03/02 07:04:36;;;;;;;29.67;16.20;;;8.70;70.00;;;;;;5011601;28;20153;-81
2022/03/02 07:07:03;;;;;;;30.77;18.98;;;8.70;70.10;;;;;;5012093;28;20292;-82
2022/03/02 07:09:30;;;;;;;25.73;17.10;;;8.60;69.00;;;;;;5011725;28;20028;-82
2022/03/02 07:11:58;;;;;;;30.52;19.23;;;8.60;69.70;;;;;;5011142;28;20393;-82
2022/03/02 07:14:25;;;;;;;31.42;19.23;;;8.60;69.50;;;;;;5011520;28;20030;-82
2022/03/02 07:16:51;;;;;;;29.67;19.40;;;8.60;68.90;;;;;;5011217;28;20030;-81
2022/03/02 07:19:17;;;;;;;31.55;18.95;;;8.60;69.30;;;;;;5011946;28;20044;-83
2022/03/02 07:21:46;;;;;;;33.80;20.73;;;8.60;68.80;;;;;;5011613;28;20026;-84
2022/03/02 07:24:16;;;;;;;31.20;19.02;;;8.40;68.70;;;;;;5011463;28;20053;-82
2022/03/02 07:26:45;;;;;;;33.25;20.92;;;8.30;70.00;;;;;;5013592;28;20033;-84
2022/03/02 07:29:14;;;;;;;34.95;20.35;;;8.30;70.50;;;;;;5018415;28;20033;-82
2022/03/02 07:31:43;;;;;;;31.15;20.25;;;8.30;69.80;;;;;;5013340;28;20026;-84
2022/03/02 07:34:12;;;;;;;31.65;21.10;;;8.30;69.90;;;;;;5011881;28;20189;-83
2022/03/02 07:36:40;;;;;;;31.67;20.73;;;8.30;69.90;;;;;;5011308;28;20481;-83
2022/03/02 07:39:06;;;;;;;30.90;20.60;;;8.40;70.00;;;;;;5011612;28;20393;-81
2022/03/02 07:41:38;;;;;;;32.88;21.05;;;8.40;70.10;;;;;;5012682;28;20038;-82
2022/03/02 07:44:05;;;;;;;33.90;20.52;;;8.40;69.60;;;;;;5012788;28;20477;-79
2022/03/02 07:46:32;;;;;;;34.45;19.85;;;8.50;69.70;;;;;;5017683;28;20025;-84
2022/03/02 07:48:58;;;;;;;33.13;20.67;;;8.70;70.00;;;;;;5013867;28;20021;-84
2022/03/02 07:51:25;;;;;;;35.17;21.38;;;8.80;69.10;;;;;;5019296;28;20465;-85
2022/03/02 07:53:55;;;;;;;33.15;19.77;;;8.80;67.70;;;;;;5031077;28;20022;-85
2022/03/02 07:56:22;;;;;;;34.20;21.20;;;8.80;67.80;;;;;;5019420;28;20018;-83
2022/03/02 07:58:48;;;;;;;38.90;22.67;;;8.80;68.00;;;;;;5013451;28;20484;-84
2022/03/02 08:01:16;;;;;;;34.13;21.33;;;8.90;67.90;;;;;;5014329;28;20042;-85
2022/03/02 08:03:44;;;;;;;33.38;19.70;;;9.00;67.70;;;;;;5014172;28;20021;-85
2022/03/02 08:06:10;;;;;;;34.17;19.48;;;9.10;67.00;;;;;;5015724;28;20033;-86
2022/03/02 08:08:36;;;;;;;34.22;21.02;;;9.20;66.40;;;;;;5015521;28;20033;-87
2022/03/02 08:11:03;;;;;;;32.35;20.83;;;9.20;64.30;;;;;;5015267;28;20433;-87
2022/03/02 08:13:31;;;;;;;32.35;19.73;;;9.20;65.20;;;;;;5014666;28;20084;-86
2022/03/02 08:15:57;;;;;;;32.15;20.52;;;9.30;65.20;;;;;;5015774;28;20429;-83
2022/03/02 08:18:23;;;;;;;30.30;18.23;;;9.40;64.30;;;;;;5016389;28;20030;-85
2022/03/02 08:20:51;;;;;;;34.97;18.83;;;9.50;63.70;;;;;;5014919;28;20084;-85
2022/03/02 08:23:35;;;;;;;27.52;18.52;;;9.50;61.70;;;;;;5015349;28;20053;-84
2022/03/02 08:26:02;;;;;;;26.55;17.10;;;9.60;62.30;;;;;;5015449;28;20072;-84
2022/03/02 08:28:35;;;;;;;30.23;19.00;;;9.60;62.30;;;;;;5014515;28;20113;-82
2022/03/02 08:31:01;;;;;;;27.77;16.67;;;9.70;61.20;;;;;;5015046;28;20109;-83
2022/03/02 08:33:29;;;;;;;27.30;16.23;;;9.50;60.70;;;;;;5014623;28;20061;-83
2022/03/02 08:35:56;;;;;;;31.55;18.13;;;9.50;60.10;;;;;;5015057;28;20050;-86
2022/03/02 08:38:23;;;;;;;26.55;16.52;;;9.40;59.70;;;;;;5014037;28;20032;-87
2022/03/02 08:40:49;;;;;;;27.45;17.20;;;9.50;59.90;;;;;;5014645;28;20436;-85
2022/03/02 08:43:15;;;;;;;29.52;17.77;;;9.50;59.70;;;;;;5014343;28;20025;-85
2022/03/02 08:45:50;;;;;;;31.83;17.88;;;9.70;60.00;;;;;;5014446;28;20030;-85
2022/03/02 08:48:17;;;;;;;28.05;18.05;;;9.80;58.70;;;;;;5014329;28;20033;-86
2022/03/02 08:50:43;;;;;;;29.98;17.17;;;9.90;58.30;;;;;;5014397;28;20049;-84
2022/03/02 08:53:13;;;;;;;30.58;17.85;;;9.90;58.20;;;;;;5014508;28;20034;-86
2022/03/02 08:55:40;;;;;;;24.02;15.75;;;9.90;57.60;;;;;;5014719;28;20408;-85
2022/03/02 08:58:05;;;;;;;28.85;16.35;;;10.00;57.70;;;;;;5014263;28;20101;-86
2022/03/02 09:00:32;;;;;;;23.80;15.77;;;10.00;56.00;;;;;;5013871;28;20164;-85
2022/03/02 09:03:01;;;;;;;32.22;16.70;;;10.10;55.80;;;;;;5022821;22;20470;-83
2022/03/02 09:05:28;;;;;;;28.23;15.60;;;10.20;54.40;;;;;;5051763;28;20123;-83
2022/03/02 09:07:54;;;;;;;27.20;15.90;;;10.40;54.80;;;;;;5054471;28;20044;-80
2022/03/02 09:10:20;;;;;;;24.85;15.77;;;10.40;54.30;;;;;;5053202;28;20384;-83
2022/03/02 09:12:46;;;;;;;26.13;15.88;;;10.40;54.90;;;;;;5052822;28;20020;-84
2022/03/02 09:15:12;;;;;;;25.02;15.57;;;10.50;54.10;;;;;;5052628;28;20105;-83
2022/03/02 09:17:38;;;;;;;25.58;15.50;;;10.50;54.30;;;;;;5052756;28;20072;-81
2022/03/02 09:20:06;;;;;;;28.35;16.25;;;10.60;54.50;;;;;;5053472;28;20128;-82
2022/03/02 09:22:33;;;;;;;29.95;16.38;;;10.70;53.80;;;;;;5039267;28;20032;-79
2022/03/02 09:24:58;;;;;;;28.92;16.30;;;10.70;53.20;;;;;;5053118;28;20028;-80
2022/03/02 09:27:28;;;;;;;29.00;17.13;;;10.70;53.30;;;;;;5052704;28;20025;-81
2022/03/02 09:29:57;;;;;;;26.80;16.17;;;10.90;53.50;;;;;;5053313;28;20111;-80
2022/03/02 09:32:24;;;;;;;32.05;19.13;;;11.10;53.50;;;;;;5053061;28;20025;-81
2022/03/02 09:34:53;;;;;;;29.40;17.15;;;11.30;52.30;;;;;;5053361;28;20380;-80
2022/03/02 09:37:22;;;;;;;30.08;18.80;;;11.30;52.60;;;;;;5053446;28;20060;-79
2022/03/02 09:39:49;;;;;;;32.50;19.20;;;11.40;53.10;;;;;;5053354;28;20037;-81
2022/03/02 09:42:24;;;;;;;27.50;17.27;;;11.40;53.40;;;;;;5048118;28;20107;-80
2022/03/02 09:45:03;;;;;;;26.50;16.33;;;11.60;52.00;;;;;;5046889;28;20575;-80
2022/03/02 09:47:36;;;;;;;26.42;16.48;;;11.70;52.20;;;;;;5052659;28;20388;-80
2022/03/02 09:50:03;;;;;;;30.38;17.90;;;11.80;51.90;;;;;;5052927;28;20086;-80
2022/03/02 09:52:34;;;;;;;24.90;17.33;;;11.70;53.00;;;;;;5051559;28;20314;-80
2022/03/02 09:55:00;;;;;;;25.52;16.88;;;11.90;53.20;;;;;;5053075;28;20111;-80
2022/03/02 09:57:27;;;;;;;25.80;15.13;;;11.90;52.40;;;;;;5053020;28;20127;-80
2022/03/02 09:59:55;;;;;;;22.85;14.65;;;11.90;51.70;;;;;;5052462;28;20151;-81
2022/03/02 10:02:30;;;;;;;25.40;17.85;;;12.00;51.10;;;;;;5052557;28;20029;-81
2022/03/02 10:05:02;;;;;;;26.63;15.98;;;12.10;49.80;;;;;;5035706;28;20068;-80
2022/03/02 10:07:29;;;;;;;31.15;18.63;;;12.00;50.20;;;;;;5034209;28;20025;-80
2022/03/02 10:10:08;;;;;;;24.90;16.83;;;12.10;50.80;;;;;;5033529;28;20042;-80
2022/03/02 10:12:34;;;;;;;25.48;16.88;;;12.20;49.80;;;;;;5033076;28;20120;-80
2022/03/02 10:15:01;;;;;;;29.40;17.88;;;12.30;50.00;;;;;;5034091;28;20041;-80
2022/03/02 10:17:53;;;;;;;25.05;16.63;;;12.40;50.10;;;;;;5043636;28;20063;-80
2022/03/02 10:20:21;;;;;;;27.98;18.17;;;12.40;51.30;;;;;;5029079;28;20072;-81
2022/03/02 10:23:02;;;;;;;27.73;18.65;;;12.40;51.10;;;;;;5033925;28;20025;-81
2022/03/02 10:25:47;;;;;;;52.50;31.42;;;12.50;51.60;;;;;;5034876;28;20029;-81
2022/03/02 10:28:16;;;;;;;40.85;25.30;;;12.70;51.80;;;;;;5043749;28;20064;-81
2022/03/02 10:30:45;;;;;;;41.05;24.95;;;12.90;51.60;;;;;;5034351;28;20373;-81
2022/03/02 10:33:11;;;;;;;93.18;56.35;;;12.90;51.90;;;;;;5031211;28;20096;-78
2022/03/02 10:35:39;;;;;;;58.85;39.47;;;12.90;51.60;;;;;;5030678;28;20033;-78
2022/03/02 10:38:06;;;;;;;41.60;28.15;;;13.00;50.90;;;;;;5030767;28;20030;-79
2022/03/02 10:40:32;;;;;;;29.00;19.08;;;13.20;51.80;;;;;;5031474;28;20037;-79
2022/03/02 10:43:03;;;;;;;28.75;19.15;;;13.30;51.30;;;;;;5031263;28;20357;-80
2022/03/02 10:45:47;;;;;;;25.40;16.50;;;13.20;50.40;;;;;;5036533;28;20106;-79
2022/03/02 10:48:36;;;;;;;24.20;16.13;;;13.40;50.20;;;;;;5034102;28;20034;-80
2022/03/02 10:51:04;;;;;;;24.60;15.80;;;13.50;50.30;;;;;;5037454;28;20056;-80
2022/03/02 10:53:34;;;;;;;21.85;15.25;;;13.60;49.30;;;;;;5047093;28;20112;-79
2022/03/02 10:56:03;;;;;;;22.98;15.82;;;13.70;48.60;;;;;;5034819;28;20025;-80
2022/03/02 10:58:29;;;;;;;27.92;15.27;;;13.60;48.60;;;;;;5046899;28;20120;-78
2022/03/02 11:00:59;;;;;;;24.50;16.33;;;13.60;49.30;;;;;;5034500;28;20041;-79
2022/03/02 11:03:28;;;;;;;24.20;16.10;;;13.40;50.10;;;;;;5047614;28;20044;-80
2022/03/02 11:05:59;;;;;;;26.23;16.00;;;13.40;51.30;;;;;;5046442;28;20042;-79
2022/03/02 11:08:25;;;;;;;26.85;16.10;;;13.60;50.30;;;;;;5046761;28;20025;-77
2022/03/02 11:10:51;;;;;;;24.48;15.65;;;13.70;49.30;;;;;;5041689;28;20049;-79
2022/03/02 11:13:16;;;;;;;30.25;17.15;;;13.80;48.90;;;;;;5038614;28;20103;-79
2022/03/02 11:15:47;;;;;;;22.75;14.80;;;13.80;48.40;;;;;;5034685;28;20422;-81
2022/03/02 11:18:17;;;;;;;22.35;13.45;;;13.80;48.00;;;;;;5044596;28;20029;-79
2022/03/02 11:20:53;;;;;;;23.48;14.45;;;14.00;47.20;;;;;;5042692;28;20396;-80
2022/03/02 11:23:23;;;;;;;22.25;14.00;;;14.10;47.80;;;;;;5039459;28;20057;-76
2022/03/02 11:25:51;;;;;;;24.40;15.52;;;14.10;48.10;;;;;;5040777;28;20036;-77
2022/03/02 11:28:22;;;;;;;21.80;14.25;;;14.20;48.20;;;;;;5042032;28;20041;-79
2022/03/02 11:30:58;;;;;;;17.15;12.45;;;14.30;47.40;;;;;;5037697;28;20055;-77
2022/03/02 11:33:28;;;;;;;18.27;12.65;;;14.30;44.70;;;;;;5039161;28;20037;-80
2022/03/02 11:36:01;;;;;;;20.48;13.65;;;14.30;45.30;;;;;;5037863;28;20107;-81
2022/03/02 11:38:31;;;;;;;;;;;14.30;44.90;;;;;;5044050;28;20033;-80
2022/03/02 11:40:57;;;;;;;19.40;13.73;;;14.20;45.20;;;;;;5041783;28;19928;-76
2022/03/02 11:43:28;;;;;;;21.38;14.20;;;14.20;46.10;;;;;;5037341;28;20028;-81
2022/03/02 11:46:01;;;;;;;20.98;13.65;;;14.10;46.90;;;;;;5039082;28;20025;-80
2022/03/02 11:48:29;;;;;;;20.23;13.68;;;14.10;46.50;;;;;;5048448;28;20396;-80
2022/03/02 11:51:21;;;;;;;22.33;14.15;;;14.10;47.00;;;;;;5046091;28;20608;-80
2022/03/02 11:54:00;;;;;;;23.65;14.38;;;14.20;47.00;;;;;;5044926;28;20407;-80
2022/03/02 11:56:29;;;;;;;21.38;13.10;;;14.40;46.90;;;;;;5046369;28;20074;-78
2022/03/02 11:59:11;;;;;;;21.98;14.63;;;14.50;45.70;;;;;;5039678;28;20029;-77
2022/03/02 12:01:51;;;;;;;20.20;12.80;;;14.60;45.00;;;;;;5039413;28;20064;-80
2022/03/02 12:04:17;;;;;;;20.35;13.60;;;14.50;46.00;;;;;;5042426;28;20041;-80
2022/03/02 12:06:48;;;;;;;20.90;14.23;;;14.60;46.00;;;;;;5041525;28;20032;-80
2022/03/02 12:09:28;;;;;;;18.52;13.23;;;14.60;45.90;;;;;;5050171;28;20025;-80
2022/03/02 12:12:16;;;;;;;21.23;14.00;;;14.60;46.20;;;;;;5048308;28;20056;-81
2022/03/02 12:14:53;;;;;;;23.35;14.40;;;14.60;45.70;;;;;;5034413;28;20025;-79
2022/03/02 12:17:29;;;;;;;21.75;13.75;;;14.70;45.90;;;;;;5036614;28;20026;-79
2022/03/02 12:20:06;;;;;;;19.83;12.85;;;14.70;46.00;;;;;;5044407;28;20037;-79
2022/03/02 12:22:41;;;;;;;21.35;14.27;;;14.60;44.60;;;;;;5049060;28;20075;-78
2022/03/02 12:25:10;;;;;;;20.80;12.43;;;14.60;45.50;;;;;;5043102;28;20063;-80
2022/03/02 12:27:36;;;;;;;19.33;13.68;;;14.60;46.10;;;;;;5034968;28;20453;-78
2022/03/02 12:30:07;;;;;;;16.30;11.63;;;14.70;45.80;;;;;;5042564;28;20171;-81
2022/03/02 12:32:35;;;;;;;18.80;12.52;;;15.00;46.30;;;;;;5034501;28;20021;-81
2022/03/02 12:35:05;;;;;;;16.30;11.65;;;15.10;44.60;;;;;;5037772;28;20056;-81
2022/03/02 12:37:33;;;;;;;20.02;12.02;;;15.10;43.70;;;;;;5036876;28;20420;-81